createdAt,value
2022-08-26T00:00:17.708Z,101101.19
2022-08-26T00:03:27.825Z,101096.75
2022-08-26T00:06:42.559Z,101095.84
2022-08-26T00:09:56.364Z,101108.09
2022-08-26T00:13:06.891Z,101102.75
2022-08-26T00:16:18.957Z,101099.19
2022-08-26T00:19:29.546Z,101100.03
2022-08-26T00:22:41.520Z,101101.72
2022-08-26T00:25:52.080Z,101096.38
2022-08-26T00:29:02.679Z,101099.03
2022-08-26T00:32:13.175Z,101097.38
2022-08-26T00:35:25.673Z,101090.16
2022-08-26T00:38:39.873Z,101093.59
2022-08-26T00:41:50.484Z,101099.75
2022-08-26T00:45:00.977Z,101096.19
2022-08-26T00:48:12.416Z,101092.59
2022-08-26T00:51:29.713Z,101090.75
2022-08-26T00:54:46.968Z,101088.91
2022-08-26T00:57:57.672Z,101087.09
2022-08-26T01:01:08.292Z,101078.22
2022-08-26T01:04:22.453Z,101086.09
2022-08-26T01:07:35.352Z,101086.06
2022-08-26T01:10:47.267Z,101084.22
2022-08-26T01:14:02.337Z,101084.25
2022-08-26T01:17:13.296Z,101083.28
2022-08-26T01:20:30.062Z,101085.03
2022-08-26T01:23:45.791Z,101083.25
2022-08-26T01:26:59.544Z,101083.13
2022-08-26T01:30:11.875Z,101078.59
2022-08-26T01:33:25.245Z,101092.69
2022-08-26T01:36:35.758Z,101096.19
2022-08-26T01:39:51.030Z,101089.97
2022-08-26T01:43:03.311Z,101088.06
2022-08-26T01:46:15.553Z,101088.84
2022-08-26T01:49:28.267Z,101089.66
2022-08-26T01:52:44.408Z,101084.41
2022-08-26T01:56:00.507Z,101084.56
2022-08-26T01:59:15.539Z,101083.44
2022-08-26T02:02:28.564Z,101083.28
2022-08-26T02:05:38.983Z,101083.25
2022-08-26T02:08:51.789Z,101075.28
2022-08-26T02:12:03.666Z,101079.53
2022-08-26T02:15:14.335Z,101078.72
2022-08-26T02:18:25.838Z,101078.59
2022-08-26T02:21:36.743Z,101089.19
2022-08-26T02:24:51.194Z,101073.16
2022-08-26T02:28:03.991Z,101074.00
2022-08-26T02:31:15.022Z,101072.22
2022-08-26T02:34:31.347Z,101070.44
2022-08-26T02:37:41.987Z,101066.88
2022-08-26T02:40:52.661Z,101061.53
2022-08-26T02:44:06.605Z,101064.22
2022-08-26T02:47:17.571Z,101060.59
2022-08-26T02:50:28.845Z,101069.28
2022-08-26T02:53:39.025Z,101066.56
2022-08-26T02:56:50.704Z,101065.66
2022-08-26T03:00:02.661Z,101062.91
2022-08-26T03:03:13.050Z,101069.06
2022-08-26T03:06:24.405Z,101073.25
2022-08-26T03:09:34.744Z,101056.47
2022-08-26T03:12:47.438Z,101070.50
2022-08-26T03:16:01.840Z,101074.06
2022-08-26T03:19:12.372Z,101063.41
2022-08-26T03:22:22.768Z,101058.03
2022-08-26T03:25:33.258Z,101054.56
2022-08-26T03:28:57.598Z,101048.31
2022-08-26T03:32:10.760Z,101040.31
2022-08-26T03:35:22.394Z,101034.94
2022-08-26T03:38:33.397Z,101040.00
2022-08-26T03:41:45.089Z,101035.56
2022-08-26T03:44:55.120Z,101038.25
2022-08-26T03:48:06.782Z,101039.03
2022-08-26T03:51:20.002Z,101035.47
2022-08-26T03:54:31.707Z,101044.19
2022-08-26T03:57:42.391Z,101044.25
2022-08-26T04:00:55.588Z,101045.00
2022-08-26T04:04:07.758Z,101046.72
2022-08-26T04:07:18.246Z,101046.81
2022-08-26T04:10:29.540Z,101033.53
2022-08-26T04:13:40.408Z,101039.72
2022-08-26T04:16:51.486Z,101034.41
2022-08-26T04:20:04.949Z,101030.06
2022-08-26T04:23:18.124Z,101030.03
2022-08-26T04:26:28.831Z,101022.94
2022-08-26T04:29:40.655Z,101023.72
2022-08-26T04:32:51.328Z,101025.59
2022-08-26T04:36:05.450Z,101023.06
2022-08-26T04:39:16.801Z,101016.88
2022-08-26T04:42:29.873Z,101021.31
2022-08-26T04:45:42.632Z,101025.66
2022-08-26T04:48:54.434Z,101023.13
2022-08-26T04:52:06.559Z,101026.59
2022-08-26T04:55:18.538Z,101031.97
2022-08-26T04:58:29.935Z,101032.91
2022-08-26T05:01:43.948Z,101026.78
2022-08-26T05:04:54.936Z,101030.34
2022-08-26T05:08:06.514Z,101029.56
2022-08-26T05:11:17.066Z,101042.06
2022-08-26T05:14:29.285Z,101028.09
2022-08-26T05:17:39.929Z,101030.88
2022-08-26T05:20:54.557Z,101036.34
2022-08-26T05:24:07.464Z,101033.91
2022-08-26T05:27:17.955Z,101028.72
2022-08-26T05:30:31.363Z,101031.41
2022-08-26T05:33:41.716Z,101027.94
2022-08-26T05:36:53.064Z,101029.78
2022-08-26T05:40:08.087Z,101028.25
2022-08-26T05:43:20.149Z,101025.75
2022-08-26T05:46:31.708Z,101035.66
2022-08-26T05:49:43.736Z,101034.03
2022-08-26T05:53:01.783Z,101047.53
2022-08-26T05:56:14.958Z,101048.06
2022-08-26T05:59:25.475Z,101049.13
2022-08-26T06:02:38.583Z,101042.94
2022-08-26T06:05:48.705Z,101052.75
2022-08-26T06:09:00.693Z,101058.13
2022-08-26T06:12:12.910Z,101044.00
2022-08-26T06:15:25.977Z,101051.25
2022-08-26T06:18:39.030Z,101045.22
2022-08-26T06:21:54.660Z,101041.78
2022-08-26T06:25:23.640Z,101046.50
2022-08-26T06:28:36.909Z,101043.09
2022-08-26T06:31:47.067Z,101038.09
2022-08-26T06:34:57.739Z,101039.19
2022-08-26T06:38:09.319Z,101031.31
2022-08-26T06:41:21.076Z,101039.31
2022-08-26T06:44:32.855Z,101028.81
2022-08-26T06:47:42.744Z,101032.38
2022-08-26T06:51:02.055Z,101041.22
2022-08-26T06:54:12.316Z,101045.84
2022-08-26T06:57:22.864Z,101047.72
2022-08-26T07:00:35.750Z,101055.88
2022-08-26T07:03:46.758Z,101047.22
2022-08-26T07:06:57.458Z,101049.84
2022-08-26T07:10:08.984Z,101051.84
2022-08-26T07:13:29.923Z,101058.97
2022-08-26T07:16:42.568Z,101058.13
2022-08-26T07:19:53.558Z,101059.13
2022-08-26T07:23:03.849Z,101066.03
2022-08-26T07:26:18.342Z,101059.84
2022-08-26T07:29:30.020Z,101060.63
2022-08-26T07:32:41.989Z,101057.06
2022-08-26T07:35:52.418Z,101051.72
2022-08-26T07:39:02.914Z,101061.63
2022-08-26T07:42:16.055Z,101060.78
2022-08-26T07:45:29.000Z,101063.22
2022-08-26T07:48:41.311Z,101071.44
2022-08-26T07:51:56.819Z,101063.34
2022-08-26T07:55:09.410Z,101063.22
2022-08-26T07:58:20.581Z,101068.03
2022-08-26T08:01:33.107Z,101072.34
2022-08-26T08:04:44.805Z,101068.00
2022-08-26T08:08:00.850Z,101067.09
2022-08-26T08:11:28.686Z,101076.94
2022-08-26T08:14:40.089Z,101074.28
2022-08-26T08:17:51.693Z,101060.94
2022-08-26T08:21:20.888Z,101068.94
2022-08-26T08:24:33.219Z,101069.84
2022-08-26T08:27:46.303Z,101081.44
2022-08-26T08:30:57.808Z,101085.91
2022-08-26T08:34:08.192Z,101093.91
2022-08-26T08:37:20.082Z,101092.09
2022-08-26T08:40:31.559Z,101091.22
2022-08-26T08:43:46.385Z,101080.53
2022-08-26T08:47:00.789Z,101088.59
2022-08-26T08:50:21.331Z,101081.44
2022-08-26T08:53:36.930Z,101085.00
2022-08-26T08:56:52.976Z,101081.41
2022-08-26T09:00:09.233Z,101078.78
2022-08-26T09:21:58.612Z,101052.97
2022-08-26T09:25:11.894Z,101055.66
2022-08-26T09:28:25.344Z,101058.31
2022-08-26T09:31:38.848Z,101068.94
2022-08-26T09:34:58.373Z,101059.13
2022-08-26T09:38:26.768Z,101063.63
2022-08-26T09:41:38.279Z,101069.84
2022-08-26T09:44:59.637Z,101065.44
2022-08-26T09:48:10.348Z,101058.28
2022-08-26T09:51:31.922Z,101049.31
2022-08-26T09:54:45.386Z,101052.81
2022-08-26T09:57:59.923Z,101051.03
2022-08-26T10:01:25.569Z,101055.53
2022-08-26T10:04:36.035Z,101053.81
2022-08-26T10:07:49.046Z,101045.78
2022-08-26T10:11:04.414Z,101047.59
2022-08-26T10:14:20.271Z,101042.22
2022-08-26T10:17:34.971Z,101032.41
2022-08-26T10:20:54.859Z,101022.56
2022-08-26T10:24:08.525Z,101027.81
2022-08-26T10:27:31.434Z,101011.72
2022-08-26T10:30:52.170Z,101008.13
2022-08-26T10:34:02.565Z,101010.75
2022-08-26T10:37:17.413Z,101018.78
2022-08-26T10:40:36.336Z,101008.00
2022-08-26T10:43:53.466Z,101003.63
2022-08-26T10:47:10.931Z,101000.97
2022-08-26T10:50:23.144Z,100998.31
2022-08-26T10:53:44.747Z,100997.44
2022-08-26T10:57:01.917Z,100994.78
2022-08-26T11:00:38.043Z,100987.69
2022-08-26T11:04:00.258Z,100980.53
2022-08-26T11:07:31.628Z,100983.19
2022-08-26T11:11:03.097Z,100973.34
2022-08-26T11:14:40.570Z,100970.63
2022-08-26T11:18:00.725Z,100964.38
2022-08-26T11:21:50.731Z,100958.16
2022-08-26T11:25:05.380Z,100950.13
2022-08-26T11:28:34.143Z,100951.88
2022-08-26T11:31:56.792Z,100950.13
2022-08-26T11:35:11.203Z,100946.59
2022-08-26T11:38:29.248Z,100936.78
2022-08-26T11:41:44.458Z,100930.56
2022-08-26T11:44:57.934Z,100924.34
2022-08-26T11:48:16.353Z,100919.91
2022-08-26T11:51:28.065Z,100911.00
2022-08-26T11:54:39.494Z,100914.63
2022-08-26T11:57:54.119Z,100911.03
2022-08-26T12:01:09.573Z,100904.59
2022-08-26T12:04:29.259Z,100898.03
2022-08-26T12:07:43.081Z,100885.31
2022-08-26T12:11:05.183Z,100885.31
2022-08-26T12:14:19.618Z,100882.53
2022-08-26T12:17:29.969Z,100887.06
2022-08-26T12:20:51.306Z,100882.69
2022-08-26T12:24:04.526Z,100887.41
2022-08-26T12:27:19.472Z,100887.41
2022-08-26T12:30:29.508Z,100887.44
2022-08-26T12:33:41.694Z,100879.41
2022-08-26T12:36:56.570Z,100883.69
2022-08-26T12:40:37.106Z,100870.19
2022-08-26T12:43:47.472Z,100871.03
2022-08-26T12:47:03.441Z,100866.50
2022-08-26T12:50:21.686Z,100867.38
2022-08-26T12:53:33.246Z,100871.91
2022-08-26T12:56:44.658Z,100874.50
2022-08-26T12:59:54.809Z,100859.16
2022-08-26T13:03:05.129Z,100861.91
2022-08-26T13:06:27.830Z,100848.53
2022-08-26T13:09:38.421Z,100847.59
2022-08-26T13:12:50.200Z,100846.72
2022-08-26T13:16:01.014Z,100852.16
2022-08-26T13:19:13.920Z,100846.84
2022-08-26T13:22:25.563Z,100845.91
2022-08-26T13:25:36.024Z,100849.47
2022-08-26T13:28:53.283Z,100839.69
2022-08-26T13:32:12.456Z,100825.47
2022-08-26T13:38:48.294Z,100841.50
2022-08-26T13:42:02.496Z,100843.44
2022-08-26T13:45:14.409Z,100829.31
2022-08-26T13:48:24.484Z,100833.84
2022-08-26T13:51:35.285Z,100830.31
2022-08-26T13:54:45.565Z,100836.47
2022-08-26T13:57:56.207Z,100835.63
2022-08-26T14:01:08.996Z,100831.16
2022-08-26T14:04:23.276Z,100827.78
2022-08-26T14:07:37.782Z,100839.47
2022-08-26T14:14:03.706Z,100847.69
2022-08-26T14:17:19.209Z,100845.06
2022-08-26T14:20:31.624Z,100853.03
2022-08-26T14:23:42.608Z,100850.34
2022-08-26T14:26:52.763Z,100851.13
2022-08-26T14:30:02.817Z,100855.56
2022-08-26T14:33:16.590Z,100859.91
2022-08-26T14:36:31.319Z,100855.41
2022-08-26T14:39:41.517Z,100837.56
2022-08-26T14:42:54.486Z,100825.06
2022-08-26T14:46:05.430Z,100817.03
2022-08-26T14:49:19.817Z,100815.16
2022-08-26T14:52:50.049Z,100812.44
2022-08-26T14:56:00.747Z,100818.69
2022-08-26T14:59:11.569Z,100820.28
2022-08-26T15:02:32.881Z,100832.69
2022-08-26T15:05:47.949Z,100846.25
2022-08-26T15:08:58.765Z,100858.84
2022-08-26T15:12:09.025Z,100841.97
2022-08-26T15:15:19.595Z,100839.31
2022-08-26T15:18:30.105Z,100839.34
2022-08-26T15:21:41.336Z,100836.69
2022-08-26T15:24:53.681Z,100829.66
2022-08-26T15:28:06.161Z,100835.19
2022-08-26T15:31:16.850Z,100850.38
2022-08-26T15:34:27.517Z,100865.69
2022-08-26T15:37:39.966Z,100870.41
2022-08-26T15:40:50.772Z,100861.59
2022-08-26T15:44:02.148Z,100867.84
2022-08-26T15:47:14.530Z,100872.31
2022-08-26T15:50:25.608Z,100878.56
2022-08-26T15:53:37.108Z,100872.31
2022-08-26T15:56:49.076Z,100874.97
2022-08-26T15:59:59.048Z,100865.19
2022-08-26T16:03:09.728Z,100862.53
2022-08-26T16:06:22.325Z,100858.09
2022-08-26T16:09:34.113Z,100847.41
2022-08-26T16:12:44.265Z,100850.06
2022-08-26T16:15:54.253Z,100843.84
2022-08-26T16:19:07.578Z,100838.50
2022-08-26T16:22:18.052Z,100842.06
2022-08-26T16:25:30.335Z,100857.16
2022-08-26T16:28:40.982Z,100864.28
2022-08-26T16:31:54.698Z,100871.41
2022-08-26T16:35:05.572Z,100880.28
2022-08-26T16:38:15.754Z,100882.97
2022-08-26T16:41:29.931Z,100878.50
2022-08-26T16:44:45.189Z,100866.06
2022-08-26T16:47:55.605Z,100871.38
2022-08-26T16:51:06.260Z,100864.25
2022-08-26T16:54:16.495Z,100871.34
2022-08-26T16:57:28.019Z,100861.53
2022-08-26T17:00:39.157Z,100873.06
2022-08-26T17:03:49.719Z,100870.34
2022-08-26T17:07:00.873Z,100892.50
2022-08-26T17:10:12.918Z,100895.16
2022-08-26T17:13:35.147Z,100912.03
2022-08-26T17:16:46.080Z,100907.59
2022-08-26T17:19:57.020Z,100910.16
2022-08-26T17:23:07.402Z,100909.19
2022-08-26T17:26:17.978Z,100906.38
2022-08-26T17:29:29.312Z,100900.94
2022-08-26T17:32:39.493Z,100897.25
2022-08-26T17:35:49.523Z,100893.53
2022-08-26T17:39:00.247Z,100903.16
2022-08-26T17:42:12.101Z,100911.97
2022-08-26T17:45:23.773Z,100911.88
2022-08-26T17:48:34.253Z,100910.09
2022-08-26T17:51:44.315Z,100907.44
2022-08-26T17:54:55.566Z,100902.97
2022-08-26T17:58:07.138Z,100908.22
2022-08-26T18:01:19.250Z,100904.53
2022-08-26T18:04:29.654Z,100899.81
2022-08-26T18:07:41.380Z,100899.59
2022-08-26T18:10:54.040Z,100890.69
2022-08-26T18:14:04.899Z,100896.72
2022-08-26T18:17:17.502Z,100881.59
2022-08-26T18:20:30.373Z,100892.16
2022-08-26T18:23:40.529Z,100887.69
2022-08-26T18:26:51.027Z,100880.56
2022-08-26T18:30:01.968Z,100875.13
2022-08-26T18:33:14.341Z,100877.78
2022-08-26T18:36:28.536Z,100869.75
2022-08-26T18:39:38.712Z,100871.50
2022-08-26T18:42:53.943Z,100856.47
2022-08-26T18:46:06.304Z,100859.91
2022-08-26T18:49:20.817Z,100866.88
2022-08-26T18:52:32.501Z,100877.69
2022-08-26T18:55:42.561Z,100876.75
2022-08-26T18:58:53.229Z,100884.56
2022-08-26T19:02:03.798Z,100897.88
2022-08-26T19:05:16.155Z,100912.84
2022-08-26T19:08:26.743Z,100915.41
2022-08-26T19:11:42.850Z,100917.13
2022-08-26T19:14:53.762Z,100923.34
2022-08-26T19:18:04.605Z,100927.72
2022-08-26T19:21:16.404Z,100919.78
2022-08-26T19:24:28.395Z,100919.72
2022-08-26T19:27:38.830Z,100915.25
2022-08-26T19:30:53.148Z,100919.72
2022-08-26T19:34:05.261Z,100926.06
2022-08-26T19:37:16.921Z,100922.44
2022-08-26T19:40:28.351Z,100928.66
2022-08-26T19:43:38.817Z,100919.81
2022-08-26T19:46:51.850Z,100920.66
2022-08-26T19:50:02.344Z,100917.94
2022-08-26T19:53:15.360Z,100920.50
2022-08-26T19:56:25.895Z,100920.38
2022-08-26T19:59:36.461Z,100925.69
2022-08-26T20:02:47.473Z,100929.22
2022-08-26T20:05:57.959Z,100941.50
2022-08-26T20:09:09.431Z,100940.41
2022-08-26T20:12:19.827Z,100942.16
2022-08-26T20:15:30.724Z,100938.47
2022-08-26T20:18:59.809Z,100935.75
2022-08-26T20:22:10.052Z,100940.19
2022-08-26T20:25:22.455Z,100941.09
2022-08-26T20:28:34.159Z,100932.91
2022-08-26T20:31:44.743Z,100925.81
2022-08-26T20:34:55.553Z,100926.69
2022-08-26T20:38:07.309Z,100923.19
2022-08-26T20:41:19.158Z,100925.78
2022-08-26T20:44:29.759Z,100917.84
2022-08-26T20:47:40.214Z,100928.47
2022-08-26T20:50:50.693Z,100920.50
2022-08-26T20:54:01.487Z,100917.81
2022-08-26T20:57:14.446Z,100919.53
2022-08-26T21:00:26.509Z,100926.59
2022-08-26T21:03:39.428Z,100926.53
2022-08-26T21:06:52.686Z,100923.00
2022-08-26T21:10:03.781Z,100924.81
2022-08-26T21:13:15.729Z,100931.97
2022-08-26T21:16:27.126Z,100936.34
2022-08-26T21:19:37.550Z,100952.25
2022-08-26T21:22:47.861Z,100938.00
2022-08-26T21:26:01.725Z,100937.16
2022-08-26T21:29:14.686Z,100940.75
2022-08-26T21:32:25.285Z,100946.91
2022-08-26T21:35:35.741Z,100940.69
2022-08-26T21:38:46.377Z,100946.91
2022-08-26T21:41:57.830Z,100938.06
2022-08-26T21:45:11.820Z,100938.06
2022-08-26T21:48:22.826Z,100941.53
2022-08-26T21:51:40.140Z,100944.09
2022-08-26T21:54:50.678Z,100948.38
2022-08-26T21:58:00.747Z,100942.00
2022-08-26T22:01:14.222Z,100952.50
2022-08-26T22:04:24.905Z,100948.16
2022-08-26T22:07:35.175Z,100943.59
2022-08-26T22:10:45.239Z,100940.94
2022-08-26T22:13:56.830Z,100940.84
2022-08-26T22:17:10.032Z,100942.56
2022-08-26T22:20:20.548Z,100946.03
2022-08-26T22:23:31.243Z,100948.72
2022-08-26T22:26:41.646Z,100951.38
2022-08-26T22:29:52.136Z,100951.31
2022-08-26T22:33:05.196Z,100951.22
2022-08-26T22:36:20.411Z,100940.59
2022-08-26T22:39:31.080Z,100941.41
2022-08-26T22:42:42.326Z,100938.84
2022-08-26T22:46:09.461Z,100939.59
2022-08-26T22:49:21.696Z,100943.13
2022-08-26T22:52:31.948Z,100935.09
2022-08-26T22:55:43.238Z,100935.97
2022-08-26T22:58:53.333Z,100930.63
2022-08-26T23:02:03.495Z,100931.50
2022-08-26T23:05:15.195Z,100923.44
2022-08-26T23:08:27.392Z,100929.66
2022-08-26T23:11:39.736Z,100927.00
2022-08-26T23:14:52.929Z,100929.69
2022-08-26T23:18:03.596Z,100933.16
2022-08-26T23:21:15.365Z,100929.63
2022-08-26T23:24:25.593Z,100930.56
2022-08-26T23:27:37.452Z,100930.47
2022-08-26T23:30:48.750Z,100919.03
2022-08-26T23:34:16.606Z,100919.72
2022-08-26T23:37:32.389Z,100922.28
2022-08-26T23:40:42.822Z,100921.31
2022-08-26T23:43:53.334Z,100921.19
2022-08-26T23:47:04.809Z,100917.63
2022-08-26T23:50:15.494Z,100922.06
2022-08-26T23:53:26.294Z,100919.44
2022-08-26T23:56:36.725Z,100924.69
2022-08-26T23:59:47.069Z,100914.09
